sensor_id;sensor_type;location;lat;lon;timestamp;temperature;humidity
47022;DHT22;32779;52.264;6.154;2023-01-01T00:00:46;14.50;99.90
47022;DHT22;32779;52.264;6.154;2023-01-01T00:03:13;14.60;99.90
47022;DHT22;32779;52.264;6.154;2023-01-01T00:05:39;14.60;99.90
47022;DHT22;32779;52.264;6.154;2023-01-01T00:08:05;14.60;99.90
47022;DHT22;32779;52.264;6.154;2023-01-01T00:10:31;14.60;99.90
47022;DHT22;32779;52.264;6.154;2023-01-01T00:12:57;14.70;99.90
47022;DHT22;32779;52.264;6.154;2023-01-01T00:15:24;14.70;99.90
47022;DHT22;32779;52.264;6.154;2023-01-01T00:17:50;14.70;99.90
47022;DHT22;32779;52.264;6.154;2023-01-01T00:20:15;14.70;99.90
47022;DHT22;32779;52.264;6.154;2023-01-01T00:22:41;14.70;99.90
47022;DHT22;32779;52.264;6.154;2023-01-01T00:25:07;14.70;99.90
47022;DHT22;32779;52.264;6.154;2023-01-01T00:27:33;14.70;99.90
47022;DHT22;32779;52.264;6.154;2023-01-01T00:29:58;14.70;99.90
47022;DHT22;32779;52.264;6.154;2023-01-01T00:32:24;14.70;99.90
47022;DHT22;32779;52.264;6.154;2023-01-01T00:34:50;14.70;99.90
47022;DHT22;32779;52.264;6.154;2023-01-01T00:37:15;14.70;99.90
47022;DHT22;32779;52.264;6.154;2023-01-01T00:39:43;14.70;99.90
47022;DHT22;32779;52.264;6.154;2023-01-01T00:42:08;14.60;99.90
47022;DHT22;32779;52.264;6.154;2023-01-01T00:44:37;14.50;99.90
47022;DHT22;32779;52.264;6.154;2023-01-01T00:47:02;14.50;99.90
47022;DHT22;32779;52.264;6.154;2023-01-01T00:49:28;14.50;99.90
47022;DHT22;32779;52.264;6.154;2023-01-01T00:51:53;14.50;99.90
47022;DHT22;32779;52.264;6.154;2023-01-01T00:54:22;14.50;99.90
47022;DHT22;32779;52.264;6.154;2023-01-01T00:56:50;14.50;99.90
47022;DHT22;32779;52.264;6.154;2023-01-01T00:59:16;14.40;99.90
47022;DHT22;32779;52.264;6.154;2023-01-01T01:01:41;14.40;99.90
47022;DHT22;32779;52.264;6.154;2023-01-01T01:04:07;14.50;99.90
47022;DHT22;32779;52.264;6.154;2023-01-01T01:06:34;14.50;99.90
47022;DHT22;32779;52.264;6.154;2023-01-01T01:09:00;14.60;99.90
47022;DHT22;32779;52.264;6.154;2023-01-01T01:11:25;14.60;99.90
47022;DHT22;32779;52.264;6.154;2023-01-01T01:13:54;14.60;99.90
47022;DHT22;32779;52.264;6.154;2023-01-01T01:16:27;14.60;99.90
47022;DHT22;32779;52.264;6.154;2023-01-01T01:18:55;14.60;99.90
47022;DHT22;32779;52.264;6.154;2023-01-01T01:21:22;14.70;99.90
47022;DHT22;32779;52.264;6.154;2023-01-01T01:23:48;14.70;99.90
47022;DHT22;32779;52.264;6.154;2023-01-01T01:28:41;14.70;99.90
47022;DHT22;32779;52.264;6.154;2023-01-01T01:31:08;14.70;99.90
47022;DHT22;32779;52.264;6.154;2023-01-01T01:33:34;14.70;99.90
47022;DHT22;32779;52.264;6.154;2023-01-01T01:36:01;14.70;99.90
47022;DHT22;32779;52.264;6.154;2023-01-01T01:38:27;14.70;99.90
47022;DHT22;32779;52.264;6.154;2023-01-01T01:40:52;14.70;99.90
47022;DHT22;32779;52.264;6.154;2023-01-01T01:46:13;14.60;99.90
47022;DHT22;32779;52.264;6.154;2023-01-01T01:48:45;14.60;99.90
47022;DHT22;32779;52.264;6.154;2023-01-01T01:51:14;14.60;99.90
47022;DHT22;32779;52.264;6.154;2023-01-01T01:53:45;14.60;99.90
47022;DHT22;32779;52.264;6.154;2023-01-01T01:56:14;14.60;99.90
47022;DHT22;32779;52.264;6.154;2023-01-01T01:58:41;14.50;99.90
47022;DHT22;32779;52.264;6.154;2023-01-01T02:01:07;14.40;99.90
47022;DHT22;32779;52.264;6.154;2023-01-01T02:03:59;14.40;99.90
47022;DHT22;32779;52.264;6.154;2023-01-01T02:06:26;14.40;99.90
47022;DHT22;32779;52.264;6.154;2023-01-01T02:08:53;14.30;99.90
47022;DHT22;32779;52.264;6.154;2023-01-01T02:11:20;14.30;99.90
47022;DHT22;32779;52.264;6.154;2023-01-01T02:13:49;14.30;99.90
47022;DHT22;32779;52.264;6.154;2023-01-01T02:16:22;14.30;99.90
47022;DHT22;32779;52.264;6.154;2023-01-01T02:21:31;14.20;99.90
47022;DHT22;32779;52.264;6.154;2023-01-01T02:29:36;14.10;99.90
47022;DHT22;32779;52.264;6.154;2023-01-01T02:34:44;14.00;99.90
47022;DHT22;32779;52.264;6.154;2023-01-01T02:37:13;14.00;99.90
47022;DHT22;32779;52.264;6.154;2023-01-01T02:39:47;14.10;99.90
47022;DHT22;32779;52.264;6.154;2023-01-01T02:42:15;14.00;99.90
47022;DHT22;32779;52.264;6.154;2023-01-01T02:44:44;14.10;99.90
47022;DHT22;32779;52.264;6.154;2023-01-01T02:47:14;14.10;99.90
47022;DHT22;32779;52.264;6.154;2023-01-01T02:49:50;14.20;99.90
47022;DHT22;32779;52.264;6.154;2023-01-01T02:52:41;14.10;99.90
47022;DHT22;32779;52.264;6.154;2023-01-01T02:55:30;14.10;99.90
47022;DHT22;32779;52.264;6.154;2023-01-01T03:01:25;14.20;99.90
47022;DHT22;32779;52.264;6.154;2023-01-01T03:04:09;14.30;99.90
47022;DHT22;32779;52.264;6.154;2023-01-01T03:07:10;14.40;99.90
47022;DHT22;32779;52.264;6.154;2023-01-01T03:22:03;14.40;99.90
47022;DHT22;32779;52.264;6.154;2023-01-01T03:24:37;14.40;99.90
47022;DHT22;32779;52.264;6.154;2023-01-01T03:27:14;14.40;99.90
47022;DHT22;32779;52.264;6.154;2023-01-01T03:29:42;14.40;99.90
47022;DHT22;32779;52.264;6.154;2023-01-01T03:32:12;14.40;99.90
47022;DHT22;32779;52.264;6.154;2023-01-01T03:34:43;14.50;99.90
47022;DHT22;32779;52.264;6.154;2023-01-01T03:37:14;14.50;99.90
47022;DHT22;32779;52.264;6.154;2023-01-01T03:39:47;14.40;99.90
47022;DHT22;32779;52.264;6.154;2023-01-01T03:42:22;14.40;99.90
47022;DHT22;32779;52.264;6.154;2023-01-01T03:44:59;14.40;99.90
47022;DHT22;32779;52.264;6.154;2023-01-01T03:47:27;14.30;99.90
47022;DHT22;32779;52.264;6.154;2023-01-01T03:49:53;14.30;99.90
47022;DHT22;32779;52.264;6.154;2023-01-01T03:52:29;14.30;99.90
47022;DHT22;32779;52.264;6.154;2023-01-01T03:57:54;14.30;99.90
47022;DHT22;32779;52.264;6.154;2023-01-01T04:00:26;14.30;99.90
47022;DHT22;32779;52.264;6.154;2023-01-01T04:03:05;14.30;99.90
47022;DHT22;32779;52.264;6.154;2023-01-01T04:05:38;14.30;99.90
47022;DHT22;32779;52.264;6.154;2023-01-01T04:08:05;14.30;99.90
47022;DHT22;32779;52.264;6.154;2023-01-01T04:10:33;14.30;99.90
47022;DHT22;32779;52.264;6.154;2023-01-01T04:13:03;14.30;99.90
47022;DHT22;32779;52.264;6.154;2023-01-01T04:15:30;14.20;99.90
47022;DHT22;32779;52.264;6.154;2023-01-01T04:17:56;14.30;99.90
47022;DHT22;32779;52.264;6.154;2023-01-01T04:20:23;14.30;99.90
47022;DHT22;32779;52.264;6.154;2023-01-01T04:22:48;14.30;99.90
47022;DHT22;32779;52.264;6.154;2023-01-01T04:25:15;14.30;99.90
47022;DHT22;32779;52.264;6.154;2023-01-01T04:27:42;14.30;99.90
47022;DHT22;32779;52.264;6.154;2023-01-01T04:30:09;14.30;99.90
47022;DHT22;32779;52.264;6.154;2023-01-01T04:32:36;14.20;99.90
47022;DHT22;32779;52.264;6.154;2023-01-01T04:35:01;14.20;99.90
47022;DHT22;32779;52.264;6.154;2023-01-01T04:37:27;14.10;99.90
47022;DHT22;32779;52.264;6.154;2023-01-01T04:39:53;14.10;99.90
47022;DHT22;32779;52.264;6.154;2023-01-01T04:42:18;13.90;99.90
47022;DHT22;32779;52.264;6.154;2023-01-01T04:44:44;13.80;99.90
47022;DHT22;32779;52.264;6.154;2023-01-01T04:47:09;13.60;99.90
47022;DHT22;32779;52.264;6.154;2023-01-01T04:49:36;13.50;99.90
47022;DHT22;32779;52.264;6.154;2023-01-01T04:52:02;13.40;99.90
47022;DHT22;32779;52.264;6.154;2023-01-01T04:54:28;13.30;99.90
47022;DHT22;32779;52.264;6.154;2023-01-01T04:56:54;13.20;99.90
47022;DHT22;32779;52.264;6.154;2023-01-01T04:59:19;13.10;99.90
47022;DHT22;32779;52.264;6.154;2023-01-01T05:01:45;13.00;99.90
47022;DHT22;32779;52.264;6.154;2023-01-01T05:04:15;13.00;99.90
47022;DHT22;32779;52.264;6.154;2023-01-01T05:06:41;12.90;99.90
47022;DHT22;32779;52.264;6.154;2023-01-01T05:09:08;12.90;99.90
47022;DHT22;32779;52.264;6.154;2023-01-01T05:11:34;12.80;99.90
47022;DHT22;32779;52.264;6.154;2023-01-01T05:14:00;12.80;99.90
47022;DHT22;32779;52.264;6.154;2023-01-01T05:16:28;12.80;99.90
47022;DHT22;32779;52.264;6.154;2023-01-01T05:18:54;12.70;99.90
47022;DHT22;32779;52.264;6.154;2023-01-01T05:21:22;12.70;99.90
47022;DHT22;32779;52.264;6.154;2023-01-01T05:23:48;12.60;99.90
47022;DHT22;32779;52.264;6.154;2023-01-01T05:26:18;12.60;99.90
47022;DHT22;32779;52.264;6.154;2023-01-01T05:28:45;12.60;99.90
47022;DHT22;32779;52.264;6.154;2023-01-01T05:31:16;12.60;99.90
47022;DHT22;32779;52.264;6.154;2023-01-01T05:33:42;12.50;99.90
47022;DHT22;32779;52.264;6.154;2023-01-01T05:36:14;12.50;99.90
47022;DHT22;32779;52.264;6.154;2023-01-01T05:38:39;12.60;99.90
47022;DHT22;32779;52.264;6.154;2023-01-01T05:41:06;12.60;99.90
47022;DHT22;32779;52.264;6.154;2023-01-01T05:43:32;12.60;99.90
47022;DHT22;32779;52.264;6.154;2023-01-01T05:46:03;12.60;99.90
47022;DHT22;32779;52.264;6.154;2023-01-01T05:48:29;12.70;99.90
47022;DHT22;32779;52.264;6.154;2023-01-01T05:51:01;12.70;99.90
47022;DHT22;32779;52.264;6.154;2023-01-01T05:53:27;12.70;99.90
47022;DHT22;32779;52.264;6.154;2023-01-01T05:55:53;12.80;99.90
47022;DHT22;32779;52.264;6.154;2023-01-01T05:58:18;12.90;99.90
47022;DHT22;32779;52.264;6.154;2023-01-01T06:00:44;12.90;99.90
47022;DHT22;32779;52.264;6.154;2023-01-01T06:03:09;13.00;99.90
47022;DHT22;32779;52.264;6.154;2023-01-01T06:05:35;13.00;99.90
47022;DHT22;32779;52.264;6.154;2023-01-01T06:08:01;13.00;99.90
47022;DHT22;32779;52.264;6.154;2023-01-01T06:10:26;13.00;99.90
47022;DHT22;32779;52.264;6.154;2023-01-01T06:12:54;13.10;99.90
47022;DHT22;32779;52.264;6.154;2023-01-01T06:15:23;13.10;99.90
47022;DHT22;32779;52.264;6.154;2023-01-01T06:17:48;13.10;99.90
47022;DHT22;32779;52.264;6.154;2023-01-01T06:20:14;13.10;99.90
47022;DHT22;32779;52.264;6.154;2023-01-01T06:22:40;13.20;99.90
47022;DHT22;32779;52.264;6.154;2023-01-01T06:25:06;13.20;99.90
47022;DHT22;32779;52.264;6.154;2023-01-01T06:27:33;13.20;99.90
47022;DHT22;32779;52.264;6.154;2023-01-01T06:29:58;13.20;99.90
47022;DHT22;32779;52.264;6.154;2023-01-01T06:32:24;13.20;99.90
47022;DHT22;32779;52.264;6.154;2023-01-01T06:34:50;13.20;99.90
47022;DHT22;32779;52.264;6.154;2023-01-01T06:37:15;13.20;99.90
47022;DHT22;32779;52.264;6.154;2023-01-01T06:39:41;13.20;99.90
47022;DHT22;32779;52.264;6.154;2023-01-01T06:42:07;13.10;99.90
47022;DHT22;32779;52.264;6.154;2023-01-01T06:44:32;13.10;99.90
47022;DHT22;32779;52.264;6.154;2023-01-01T06:46:58;13.10;99.90
47022;DHT22;32779;52.264;6.154;2023-01-01T06:49:23;13.10;99.90
47022;DHT22;32779;52.264;6.154;2023-01-01T06:51:49;13.10;99.90
47022;DHT22;32779;52.264;6.154;2023-01-01T06:54:15;13.00;99.90
47022;DHT22;32779;52.264;6.154;2023-01-01T06:56:40;13.00;99.90
47022;DHT22;32779;52.264;6.154;2023-01-01T06:59:06;12.90;99.90
47022;DHT22;32779;52.264;6.154;2023-01-01T07:01:33;12.90;99.90
47022;DHT22;32779;52.264;6.154;2023-01-01T07:04:03;12.90;99.90
47022;DHT22;32779;52.264;6.154;2023-01-01T07:06:30;12.90;99.90
47022;DHT22;32779;52.264;6.154;2023-01-01T07:08:56;12.80;99.90
47022;DHT22;32779;52.264;6.154;2023-01-01T07:11:22;12.80;99.90
47022;DHT22;32779;52.264;6.154;2023-01-01T07:13:48;12.80;99.90
47022;DHT22;32779;52.264;6.154;2023-01-01T07:16:14;12.80;99.90
47022;DHT22;32779;52.264;6.154;2023-01-01T07:18:40;12.70;99.90
47022;DHT22;32779;52.264;6.154;2023-01-01T07:21:25;12.70;99.90
47022;DHT22;32779;52.264;6.154;2023-01-01T07:23:51;12.70;99.90
47022;DHT22;32779;52.264;6.154;2023-01-01T07:26:16;12.70;99.90
47022;DHT22;32779;52.264;6.154;2023-01-01T07:28:42;12.70;99.90
47022;DHT22;32779;52.264;6.154;2023-01-01T07:31:09;12.60;99.90
47022;DHT22;32779;52.264;6.154;2023-01-01T07:33:35;12.60;99.90
47022;DHT22;32779;52.264;6.154;2023-01-01T07:36:00;12.60;99.90
47022;DHT22;32779;52.264;6.154;2023-01-01T07:38:26;12.50;99.90
47022;DHT22;32779;52.264;6.154;2023-01-01T07:40:51;12.50;99.90
47022;DHT22;32779;52.264;6.154;2023-01-01T07:43:17;12.50;99.90
47022;DHT22;32779;52.264;6.154;2023-01-01T07:45:42;12.50;99.90
47022;DHT22;32779;52.264;6.154;2023-01-01T07:48:13;12.40;99.90
47022;DHT22;32779;52.264;6.154;2023-01-01T07:50:39;12.40;99.90
47022;DHT22;32779;52.264;6.154;2023-01-01T07:53:05;12.30;99.90
47022;DHT22;32779;52.264;6.154;2023-01-01T07:55:31;12.30;99.90
47022;DHT22;32779;52.264;6.154;2023-01-01T07:57:58;12.30;99.90
47022;DHT22;32779;52.264;6.154;2023-01-01T08:00:24;12.20;99.90
47022;DHT22;32779;52.264;6.154;2023-01-01T08:02:49;12.20;99.90
47022;DHT22;32779;52.264;6.154;2023-01-01T08:05:15;12.20;99.90
47022;DHT22;32779;52.264;6.154;2023-01-01T08:07:45;12.20;99.90
47022;DHT22;32779;52.264;6.154;2023-01-01T08:10:11;12.20;99.90
47022;DHT22;32779;52.264;6.154;2023-01-01T08:12:36;12.10;99.90
47022;DHT22;32779;52.264;6.154;2023-01-01T08:15:02;12.10;99.90
47022;DHT22;32779;52.264;6.154;2023-01-01T08:17:27;12.10;99.90
47022;DHT22;32779;52.264;6.154;2023-01-01T08:19:53;12.10;99.90
47022;DHT22;32779;52.264;6.154;2023-01-01T08:22:19;12.00;99.90
47022;DHT22;32779;52.264;6.154;2023-01-01T08:24:44;12.00;99.90
47022;DHT22;32779;52.264;6.154;2023-01-01T08:27:14;11.90;99.90
47022;DHT22;32779;52.264;6.154;2023-01-01T08:29:40;11.90;99.90
47022;DHT22;32779;52.264;6.154;2023-01-01T08:32:06;11.80;99.90
47022;DHT22;32779;52.264;6.154;2023-01-01T08:34:31;11.80;99.90
47022;DHT22;32779;52.264;6.154;2023-01-01T08:36:57;11.80;99.90
47022;DHT22;32779;52.264;6.154;2023-01-01T08:39:24;11.70;99.90
47022;DHT22;32779;52.264;6.154;2023-01-01T08:41:49;11.70;99.90
47022;DHT22;32779;52.264;6.154;2023-01-01T08:44:15;11.70;99.90
47022;DHT22;32779;52.264;6.154;2023-01-01T08:46:40;11.70;99.90
47022;DHT22;32779;52.264;6.154;2023-01-01T08:49:06;11.70;99.90
47022;DHT22;32779;52.264;6.154;2023-01-01T08:51:32;11.70;99.90
47022;DHT22;32779;52.264;6.154;2023-01-01T08:53:57;11.70;99.90
47022;DHT22;32779;52.264;6.154;2023-01-01T08:56:23;11.70;99.90
47022;DHT22;32779;52.264;6.154;2023-01-01T08:58:48;11.70;99.90
47022;DHT22;32779;52.264;6.154;2023-01-01T09:01:14;11.70;99.90
47022;DHT22;32779;52.264;6.154;2023-01-01T09:03:40;11.70;99.90
47022;DHT22;32779;52.264;6.154;2023-01-01T09:06:05;11.70;99.90
47022;DHT22;32779;52.264;6.154;2023-01-01T09:08:31;11.70;99.90
47022;DHT22;32779;52.264;6.154;2023-01-01T09:11:01;11.70;99.90
47022;DHT22;32779;52.264;6.154;2023-01-01T09:13:27;11.70;99.90
47022;DHT22;32779;52.264;6.154;2023-01-01T09:15:53;11.70;99.90
47022;DHT22;32779;52.264;6.154;2023-01-01T09:18:19;11.70;99.90
47022;DHT22;32779;52.264;6.154;2023-01-01T09:20:44;11.70;99.90
47022;DHT22;32779;52.264;6.154;2023-01-01T09:23:11;11.70;99.90
47022;DHT22;32779;52.264;6.154;2023-01-01T09:25:37;11.70;99.90
47022;DHT22;32779;52.264;6.154;2023-01-01T09:28:10;11.70;99.90
47022;DHT22;32779;52.264;6.154;2023-01-01T09:30:36;11.70;99.90
47022;DHT22;32779;52.264;6.154;2023-01-01T09:33:02;11.60;99.90
47022;DHT22;32779;52.264;6.154;2023-01-01T09:35:29;11.60;99.90
47022;DHT22;32779;52.264;6.154;2023-01-01T09:37:55;11.60;99.90
47022;DHT22;32779;52.264;6.154;2023-01-01T09:42:53;11.60;99.90
47022;DHT22;32779;52.264;6.154;2023-01-01T09:45:35;11.60;99.90
47022;DHT22;32779;52.264;6.154;2023-01-01T09:48:10;11.60;99.90
47022;DHT22;32779;52.264;6.154;2023-01-01T09:50:46;11.60;99.90
47022;DHT22;32779;52.264;6.154;2023-01-01T09:55:56;11.60;99.90
47022;DHT22;32779;52.264;6.154;2023-01-01T09:58:26;11.60;99.90
47022;DHT22;32779;52.264;6.154;2023-01-01T10:01:06;11.70;99.90
47022;DHT22;32779;52.264;6.154;2023-01-01T10:03:50;11.80;99.90
47022;DHT22;32779;52.264;6.154;2023-01-01T10:06:24;11.90;99.90
47022;DHT22;32779;52.264;6.154;2023-01-01T10:14:40;12.10;99.90
47022;DHT22;32779;52.264;6.154;2023-01-01T10:17:50;12.10;99.90
47022;DHT22;32779;52.264;6.154;2023-01-01T10:20:00;12.20;99.90
47022;DHT22;32779;52.264;6.154;2023-01-01T10:22:35;12.20;99.90
47022;DHT22;32779;52.264;6.154;2023-01-01T10:25:22;12.20;99.90
47022;DHT22;32779;52.264;6.154;2023-01-01T10:27:52;12.20;99.90
47022;DHT22;32779;52.264;6.154;2023-01-01T10:30:22;12.10;99.90
47022;DHT22;32779;52.264;6.154;2023-01-01T10:32:50;12.20;99.90
47022;DHT22;32779;52.264;6.154;2023-01-01T10:35:22;12.30;99.90
47022;DHT22;32779;52.264;6.154;2023-01-01T10:37:48;12.30;99.90
47022;DHT22;32779;52.264;6.154;2023-01-01T10:40:25;12.40;99.90
47022;DHT22;32779;52.264;6.154;2023-01-01T10:42:59;12.40;99.90
47022;DHT22;32779;52.264;6.154;2023-01-01T10:45:47;12.50;99.90
47022;DHT22;32779;52.264;6.154;2023-01-01T10:48:20;12.50;99.90
47022;DHT22;32779;52.264;6.154;2023-01-01T10:50:54;12.50;99.90
47022;DHT22;32779;52.264;6.154;2023-01-01T10:56:18;12.50;99.90
47022;DHT22;32779;52.264;6.154;2023-01-01T10:58:50;12.60;99.90
47022;DHT22;32779;52.264;6.154;2023-01-01T11:06:47;12.60;99.90
47022;DHT22;32779;52.264;6.154;2023-01-01T11:09:24;12.60;99.90
47022;DHT22;32779;52.264;6.154;2023-01-01T11:11:59;12.60;99.90
47022;DHT22;32779;52.264;6.154;2023-01-01T11:14:27;12.50;99.90
47022;DHT22;32779;52.264;6.154;2023-01-01T11:16:55;12.50;99.90
47022;DHT22;32779;52.264;6.154;2023-01-01T11:19:30;12.50;99.90
47022;DHT22;32779;52.264;6.154;2023-01-01T11:21:57;12.50;99.90
47022;DHT22;32779;52.264;6.154;2023-01-01T11:24:25;12.50;99.90
47022;DHT22;32779;52.264;6.154;2023-01-01T11:26:53;12.50;99.90
47022;DHT22;32779;52.264;6.154;2023-01-01T11:29:26;12.50;99.90
47022;DHT22;32779;52.264;6.154;2023-01-01T11:31:53;12.60;99.90
47022;DHT22;32779;52.264;6.154;2023-01-01T11:34:36;12.60;99.90
47022;DHT22;32779;52.264;6.154;2023-01-01T11:39:48;12.60;99.90
47022;DHT22;32779;52.264;6.154;2023-01-01T11:42:21;12.60;99.90
47022;DHT22;32779;52.264;6.154;2023-01-01T11:45:17;12.60;99.90
47022;DHT22;32779;52.264;6.154;2023-01-01T11:47:44;12.60;99.90
47022;DHT22;32779;52.264;6.154;2023-01-01T11:50:33;12.70;99.90
47022;DHT22;32779;52.264;6.154;2023-01-01T11:53:39;12.70;99.90
47022;DHT22;32779;52.264;6.154;2023-01-01T11:56:15;12.70;99.90
47022;DHT22;32779;52.264;6.154;2023-01-01T12:01:26;12.70;99.90
47022;DHT22;32779;52.264;6.154;2023-01-01T12:04:03;12.70;99.90
47022;DHT22;32779;52.264;6.154;2023-01-01T12:06:46;12.70;99.90
47022;DHT22;32779;52.264;6.154;2023-01-01T12:09:42;12.70;99.90
47022;DHT22;32779;52.264;6.154;2023-01-01T12:12:38;12.80;99.90
47022;DHT22;32779;52.264;6.154;2023-01-01T12:15:19;12.70;99.90
47022;DHT22;32779;52.264;6.154;2023-01-01T12:17:58;12.70;99.90
47022;DHT22;32779;52.264;6.154;2023-01-01T12:20:29;12.70;99.90
47022;DHT22;32779;52.264;6.154;2023-01-01T12:22:57;12.70;99.90
47022;DHT22;32779;52.264;6.154;2023-01-01T12:25:27;12.70;99.90
47022;DHT22;32779;52.264;6.154;2023-01-01T12:48:14;12.90;99.90
47022;DHT22;32779;52.264;6.154;2023-01-01T12:51:01;12.90;99.90
47022;DHT22;32779;52.264;6.154;2023-01-01T12:56:34;13.00;99.90
47022;DHT22;32779;52.264;6.154;2023-01-01T13:01:38;13.00;99.90
47022;DHT22;32779;52.264;6.154;2023-01-01T13:04:10;13.00;99.90
47022;DHT22;32779;52.264;6.154;2023-01-01T13:09:20;13.00;99.90
47022;DHT22;32779;52.264;6.154;2023-01-01T13:11:49;13.00;99.90
47022;DHT22;32779;52.264;6.154;2023-01-01T13:14:17;13.00;99.90
47022;DHT22;32779;52.264;6.154;2023-01-01T13:16:56;12.90;99.90
47022;DHT22;32779;52.264;6.154;2023-01-01T13:19:40;13.00;99.90
47022;DHT22;32779;52.264;6.154;2023-01-01T13:25:20;13.00;99.90
47022;DHT22;32779;52.264;6.154;2023-01-01T13:33:28;13.00;99.90
47022;DHT22;32779;52.264;6.154;2023-01-01T13:38:55;13.00;99.90
47022;DHT22;32779;52.264;6.154;2023-01-01T13:41:31;13.00;99.90
47022;DHT22;32779;52.264;6.154;2023-01-01T13:57:00;12.90;99.90
47022;DHT22;32779;52.264;6.154;2023-01-01T14:02:27;12.90;99.90
47022;DHT22;32779;52.264;6.154;2023-01-01T14:05:02;12.90;99.90
47022;DHT22;32779;52.264;6.154;2023-01-01T14:07:53;12.90;99.90
47022;DHT22;32779;52.264;6.154;2023-01-01T14:10:31;12.90;99.90
47022;DHT22;32779;52.264;6.154;2023-01-01T14:15:43;12.80;99.90
47022;DHT22;32779;52.264;6.154;2023-01-01T14:18:15;12.80;99.90
47022;DHT22;32779;52.264;6.154;2023-01-01T14:20:49;12.80;99.90
47022;DHT22;32779;52.264;6.154;2023-01-01T14:23:37;12.80;99.90
47022;DHT22;32779;52.264;6.154;2023-01-01T14:26:08;12.80;99.90
47022;DHT22;32779;52.264;6.154;2023-01-01T14:28:35;12.80;99.90
47022;DHT22;32779;52.264;6.154;2023-01-01T14:31:16;12.80;99.90
47022;DHT22;32779;52.264;6.154;2023-01-01T14:33:43;12.80;99.90
47022;DHT22;32779;52.264;6.154;2023-01-01T14:36:36;12.80;99.90
47022;DHT22;32779;52.264;6.154;2023-01-01T14:39:01;12.70;99.90
47022;DHT22;32779;52.264;6.154;2023-01-01T14:41:36;12.70;99.90
47022;DHT22;32779;52.264;6.154;2023-01-01T14:44:09;12.60;99.90
47022;DHT22;32779;52.264;6.154;2023-01-01T14:46:48;12.60;99.90
47022;DHT22;32779;52.264;6.154;2023-01-01T14:49:18;12.50;99.90
47022;DHT22;32779;52.264;6.154;2023-01-01T14:51:48;12.50;99.90
47022;DHT22;32779;52.264;6.154;2023-01-01T14:54:19;12.50;99.90
47022;DHT22;32779;52.264;6.154;2023-01-01T14:56:46;12.50;99.90
47022;DHT22;32779;52.264;6.154;2023-01-01T14:59:22;12.40;99.90
47022;DHT22;32779;52.264;6.154;2023-01-01T15:02:14;12.40;99.90
47022;DHT22;32779;52.264;6.154;2023-01-01T15:04:41;12.40;99.90
47022;DHT22;32779;52.264;6.154;2023-01-01T15:07:22;12.30;99.90
47022;DHT22;32779;52.264;6.154;2023-01-01T15:09:50;12.30;99.90
47022;DHT22;32779;52.264;6.154;2023-01-01T15:12:16;12.30;99.90
47022;DHT22;32779;52.264;6.154;2023-01-01T15:14:46;12.30;99.90
47022;DHT22;32779;52.264;6.154;2023-01-01T15:17:15;12.30;99.90
47022;DHT22;32779;52.264;6.154;2023-01-01T15:19:43;12.30;99.90
47022;DHT22;32779;52.264;6.154;2023-01-01T15:24:44;12.30;99.90
47022;DHT22;32779;52.264;6.154;2023-01-01T15:27:32;12.30;99.90
47022;DHT22;32779;52.264;6.154;2023-01-01T15:29:59;12.20;99.90
47022;DHT22;32779;52.264;6.154;2023-01-01T15:32:32;12.20;99.90
47022;DHT22;32779;52.264;6.154;2023-01-01T15:35:00;12.10;99.90
47022;DHT22;32779;52.264;6.154;2023-01-01T15:37:47;12.10;99.90
47022;DHT22;32779;52.264;6.154;2023-01-01T15:42:43;12.10;99.90
47022;DHT22;32779;52.264;6.154;2023-01-01T15:45:31;12.10;99.90
47022;DHT22;32779;52.264;6.154;2023-01-01T15:50:33;12.00;99.90
47022;DHT22;32779;52.264;6.154;2023-01-01T15:53:16;12.00;99.90
47022;DHT22;32779;52.264;6.154;2023-01-01T15:55:49;12.00;99.90
47022;DHT22;32779;52.264;6.154;2023-01-01T15:58:36;12.00;99.90
47022;DHT22;32779;52.264;6.154;2023-01-01T16:01:10;12.00;99.90
47022;DHT22;32779;52.264;6.154;2023-01-01T16:03:39;12.00;99.90
47022;DHT22;32779;52.264;6.154;2023-01-01T16:06:05;11.90;99.90
47022;DHT22;32779;52.264;6.154;2023-01-01T16:08:31;11.90;99.90
47022;DHT22;32779;52.264;6.154;2023-01-01T16:10:57;11.90;99.90
47022;DHT22;32779;52.264;6.154;2023-01-01T16:13:23;12.00;99.90
47022;DHT22;32779;52.264;6.154;2023-01-01T16:15:56;11.90;99.90
47022;DHT22;32779;52.264;6.154;2023-01-01T16:18:35;11.90;99.90
47022;DHT22;32779;52.264;6.154;2023-01-01T16:21:02;11.80;99.90
47022;DHT22;32779;52.264;6.154;2023-01-01T16:23:28;11.80;99.90
47022;DHT22;32779;52.264;6.154;2023-01-01T16:25:54;11.80;99.90
47022;DHT22;32779;52.264;6.154;2023-01-01T16:28:20;11.70;99.90
47022;DHT22;32779;52.264;6.154;2023-01-01T16:30:46;11.70;99.90
47022;DHT22;32779;52.264;6.154;2023-01-01T16:33:17;11.70;99.90
47022;DHT22;32779;52.264;6.154;2023-01-01T16:35:43;11.70;99.90
47022;DHT22;32779;52.264;6.154;2023-01-01T16:38:09;11.70;99.90
47022;DHT22;32779;52.264;6.154;2023-01-01T16:40:36;11.70;99.90
47022;DHT22;32779;52.264;6.154;2023-01-01T16:43:01;11.70;99.90
47022;DHT22;32779;52.264;6.154;2023-01-01T16:45:28;11.60;99.90
47022;DHT22;32779;52.264;6.154;2023-01-01T16:47:54;11.60;99.90
47022;DHT22;32779;52.264;6.154;2023-01-01T16:50:20;11.60;99.90
47022;DHT22;32779;52.264;6.154;2023-01-01T16:52:46;11.60;99.90
47022;DHT22;32779;52.264;6.154;2023-01-01T16:55:12;11.60;99.90
47022;DHT22;32779;52.264;6.154;2023-01-01T16:57:38;11.60;99.90
47022;DHT22;32779;52.264;6.154;2023-01-01T17:00:04;11.60;99.90
47022;DHT22;32779;52.264;6.154;2023-01-01T17:02:30;11.60;99.90
47022;DHT22;32779;52.264;6.154;2023-01-01T17:04:56;11.50;99.90
47022;DHT22;32779;52.264;6.154;2023-01-01T17:07:21;11.50;99.90
47022;DHT22;32779;52.264;6.154;2023-01-01T17:09:47;11.50;99.90
47022;DHT22;32779;52.264;6.154;2023-01-01T17:12:12;11.50;99.90
47022;DHT22;32779;52.264;6.154;2023-01-01T17:14:38;11.40;99.90
47022;DHT22;32779;52.264;6.154;2023-01-01T17:17:03;11.50;99.90
47022;DHT22;32779;52.264;6.154;2023-01-01T17:19:29;11.50;99.90
47022;DHT22;32779;52.264;6.154;2023-01-01T17:21:55;11.50;99.90
47022;DHT22;32779;52.264;6.154;2023-01-01T17:24:20;11.50;99.90
47022;DHT22;32779;52.264;6.154;2023-01-01T17:26:53;11.50;99.90
47022;DHT22;32779;52.264;6.154;2023-01-01T17:29:20;11.50;99.90
47022;DHT22;32779;52.264;6.154;2023-01-01T17:31:46;11.60;99.90
47022;DHT22;32779;52.264;6.154;2023-01-01T17:34:12;11.60;99.90
47022;DHT22;32779;52.264;6.154;2023-01-01T17:36:38;11.60;99.90
47022;DHT22;32779;52.264;6.154;2023-01-01T17:39:04;11.70;99.90
47022;DHT22;32779;52.264;6.154;2023-01-01T17:41:30;11.70;99.90
47022;DHT22;32779;52.264;6.154;2023-01-01T17:43:56;11.70;99.90
47022;DHT22;32779;52.264;6.154;2023-01-01T17:46:25;11.70;99.90
47022;DHT22;32779;52.264;6.154;2023-01-01T17:48:52;11.80;99.90
47022;DHT22;32779;52.264;6.154;2023-01-01T17:51:18;11.80;99.90